Time;durP1;ratioP1;P1;durP2;ratioP2;P2;SDS_P1;SDS_P2;PMS_P1;PMS_P2;Temp;Humidity;BMP_temperature;BMP_pressure;BME280_temperature;BME280_humidity;BME280_pressure;Samples;Min_cycle;Max_cycle;Signal;HPM_P1;HPM_P2
2022/10/08 00:01:03;;;;;;;28.95;16.50;;;24.30;99.90;;;;;;5015328;28;20038;-67
2022/10/08 00:03:35;;;;;;;24.48;16.73;;;24.20;99.90;;;;;;5015351;28;20429;-67
2022/10/08 00:06:07;;;;;;;28.42;17.27;;;24.30;99.90;;;;;;5015158;28;20147;-67
2022/10/08 00:08:36;;;;;;;25.15;18.25;;;24.30;99.90;;;;;;5015122;28;20081;-68
2022/10/08 00:11:08;;;;;;;30.70;20.38;;;24.30;99.90;;;;;;5015245;28;20040;-67
2022/10/08 00:13:46;;;;;;;27.35;18.85;;;24.30;99.90;;;;;;5014606;28;20018;-66
2022/10/08 00:16:25;;;;;;;25.60;19.20;;;24.30;99.90;;;;;;5015160;28;20104;-68
2022/10/08 00:18:54;;;;;;;28.52;21.23;;;24.20;99.90;;;;;;5015242;28;20022;-67
2022/10/08 00:21:28;;;;;;;32.28;21.77;;;24.30;99.90;;;;;;5015027;28;20057;-67
2022/10/08 00:23:56;;;;;;;32.55;22.33;;;24.30;99.90;;;;;;5014714;28;20026;-66
2022/10/08 00:26:25;;;;;;;32.83;21.23;;;24.30;99.90;;;;;;5014910;28;20032;-67
2022/10/08 00:28:54;;;;;;;171.63;132.95;;;24.30;99.90;;;;;;5015073;28;20030;-67
2022/10/08 00:31:26;;;;;;;302.15;200.30;;;24.30;99.90;;;;;;5014923;28;20022;-67
2022/10/08 00:33:56;;;;;;;105.78;66.82;;;24.30;99.90;;;;;;5014796;28;20018;-68
2022/10/08 00:36:26;;;;;;;54.42;38.83;;;24.30;99.90;;;;;;5014914;28;20033;-72
2022/10/08 00:39:05;;;;;;;62.55;43.15;;;24.40;99.90;;;;;;5014332;28;20073;-65
2022/10/08 00:41:36;;;;;;;42.97;27.42;;;24.30;99.90;;;;;;5014730;28;20025;-65
2022/10/08 00:44:23;;;;;;;30.55;22.10;;;24.40;99.90;;;;;;5014552;28;20040;-66
2022/10/08 00:46:50;;;;;;;29.10;23.58;;;24.30;99.90;;;;;;4954140;29;20564;-67
2022/10/08 00:49:21;;;;;;;73.53;53.28;;;24.30;99.90;;;;;;4953486;29;20651;-67
2022/10/08 00:51:54;;;;;;;83.80;55.97;;;24.30;99.90;;;;;;4953726;29;20108;-66
2022/10/08 00:54:22;;;;;;;102.15;72.85;;;24.20;99.90;;;;;;4954014;29;20051;-66
2022/10/08 00:56:52;;;;;;;40.20;32.20;;;24.20;99.90;;;;;;4954018;29;20027;-67
2022/10/08 00:59:20;;;;;;;48.97;33.35;;;24.20;99.90;;;;;;4954121;29;20504;-66
2022/10/08 01:01:46;;;;;;;47.58;33.30;;;24.20;99.90;;;;;;4953974;29;20035;-65
2022/10/08 01:04:14;;;;;;;50.17;37.97;;;24.20;99.90;;;;;;4953736;29;20040;-68
2022/10/08 01:07:10;;;;;;;45.08;36.10;;;24.20;99.90;;;;;;4953620;29;20414;-67
2022/10/08 01:10:01;;;;;;;33.03;24.10;;;24.20;99.90;;;;;;4934583;29;20036;-67
2022/10/08 01:12:36;;;;;;;28.67;19.85;;;24.20;99.90;;;;;;4891939;29;20119;-67
2022/10/08 01:15:22;;;;;;;27.77;19.27;;;24.20;99.90;;;;;;4896713;29;20549;-70
2022/10/08 01:18:28;;;;;;;31.02;22.45;;;24.10;99.90;;;;;;4896536;29;20047;-68
2022/10/08 01:21:05;;;;;;;30.17;22.38;;;24.20;99.90;;;;;;4896271;29;20096;-68
2022/10/08 01:24:11;;;;;;;32.90;26.25;;;24.20;99.90;;;;;;4902029;29;20078;-67
2022/10/08 01:27:06;;;;;;;35.63;27.20;;;24.20;99.90;;;;;;4915793;29;20040;-67
2022/10/08 01:29:41;;;;;;;31.23;25.10;;;24.20;99.90;;;;;;4814162;29;20039;-70
2022/10/08 01:32:15;;;;;;;21.83;18.77;;;24.30;99.90;;;;;;4802623;29;20038;-68
2022/10/08 01:34:47;;;;;;;21.95;17.73;;;24.30;99.90;;;;;;4804444;29;20035;-67
2022/10/08 01:37:23;;;;;;;18.33;15.00;;;24.30;99.90;;;;;;4804236;29;20047;-68
2022/10/08 01:39:54;;;;;;;196.98;149.35;;;24.30;99.90;;;;;;4816273;29;20572;-67
2022/10/08 01:42:23;;;;;;;74.45;54.08;;;24.30;99.90;;;;;;4847375;29;20037;-67
2022/10/08 01:44:57;;;;;;;48.50;37.00;;;24.20;99.90;;;;;;4877702;29;20041;-68
2022/10/08 01:47:27;;;;;;;27.38;19.08;;;24.20;99.90;;;;;;4877550;29;20025;-68
2022/10/08 01:50:01;;;;;;;39.08;26.70;;;24.30;99.90;;;;;;4877510;29;20116;-67
2022/10/08 01:52:37;;;;;;;16.00;12.75;;;24.30;99.90;;;;;;4877242;29;20029;-67
2022/10/08 01:55:10;;;;;;;23.20;14.18;;;24.30;99.90;;;;;;4877660;29;20064;-67
2022/10/08 01:57:38;;;;;;;10.52;9.05;;;24.40;99.90;;;;;;4877682;29;20033;-68
2022/10/08 02:00:11;;;;;;;14.38;12.43;;;24.40;99.90;;;;;;4956326;28;20052;-67
2022/10/08 02:02:38;;;;;;;11.57;9.13;;;24.40;99.90;;;;;;5029658;28;20026;-69
2022/10/08 02:05:06;;;;;;;13.73;10.90;;;24.40;99.90;;;;;;5032994;28;20132;-68
2022/10/08 02:07:37;;;;;;;13.57;10.68;;;24.40;99.90;;;;;;5032970;28;20040;-67
2022/10/08 02:10:10;;;;;;;13.60;11.35;;;24.40;99.90;;;;;;5033055;28;20187;-67
2022/10/08 02:12:39;;;;;;;12.20;9.85;;;24.50;99.90;;;;;;5032939;28;20030;-67
2022/10/08 02:15:10;;;;;;;14.77;9.60;;;24.50;99.90;;;;;;5033045;28;20029;-68
2022/10/08 02:17:42;;;;;;;12.77;8.40;;;24.50;99.90;;;;;;5033181;28;20460;-67
2022/10/08 02:20:12;;;;;;;11.30;8.63;;;24.50;99.90;;;;;;5033323;28;20248;-71
2022/10/08 02:22:52;;;;;;;13.77;8.02;;;24.50;99.90;;;;;;5032732;28;20033;-66
2022/10/08 02:25:28;;;;;;;8.57;7.68;;;24.50;99.90;;;;;;5033049;28;20026;-67
2022/10/08 02:28:16;;;;;;;10.10;7.30;;;24.60;99.90;;;;;;5032885;28;20057;-67
2022/10/08 02:31:08;;;;;;;12.52;7.10;;;24.60;99.90;;;;;;4971991;28;20034;-68
2022/10/08 02:33:45;;;;;;;12.80;7.57;;;24.60;99.90;;;;;;4971904;28;20030;-66
2022/10/08 02:36:16;;;;;;;177.27;141.82;;;24.70;99.90;;;;;;4974656;28;20078;-67
2022/10/08 02:38:51;;;;;;;9.10;6.18;;;24.80;99.90;;;;;;4975664;28;20525;-67
2022/10/08 02:41:24;;;;;;;55.25;40.90;;;24.80;99.90;;;;;;4976050;28;20101;-69
2022/10/08 02:43:52;;;;;;;11.10;8.90;;;24.90;99.90;;;;;;4975916;28;20053;-69
2022/10/08 02:46:22;;;;;;;6.20;4.40;;;24.90;99.90;;;;;;4975841;28;20518;-67
2022/10/08 02:49:13;;;;;;;8.55;4.47;;;24.80;99.90;;;;;;4975472;28;20069;-67
2022/10/08 02:51:48;;;;;;;10.40;6.03;;;24.90;99.90;;;;;;4975412;28;20557;-68
2022/10/08 02:54:18;;;;;;;11.98;6.57;;;25.00;99.90;;;;;;4975837;28;20023;-68
2022/10/08 02:56:48;;;;;;;15.70;9.30;;;24.90;99.90;;;;;;4975649;28;20410;-69
2022/10/08 02:59:16;;;;;;;58.28;25.52;;;25.00;99.90;;;;;;4975590;28;20122;-69
2022/10/08 03:01:43;;;;;;;11.10;6.43;;;25.00;99.90;;;;;;5015403;28;20069;-69
2022/10/08 03:04:35;;;;;;;8.32;5.18;;;25.00;99.90;;;;;;5034253;28;20025;-67
2022/10/08 03:07:03;;;;;;;7.22;4.85;;;25.10;99.90;;;;;;4974746;28;20125;-68
2022/10/08 03:09:35;;;;;;;10.18;5.50;;;25.10;99.90;;;;;;4975323;28;20031;-68
2022/10/08 03:12:02;;;;;;;8.23;5.97;;;25.20;99.90;;;;;;4975377;28;20030;-69
2022/10/08 03:14:32;;;;;;;10.48;5.63;;;25.20;99.90;;;;;;4975405;28;20027;-66
2022/10/08 03:16:59;;;;;;;6.70;4.95;;;25.20;99.90;;;;;;4975045;28;20542;-67
2022/10/08 03:19:27;;;;;;;13.50;7.80;;;25.20;99.90;;;;;;4975161;28;20054;-68
2022/10/08 03:21:55;;;;;;;13.90;8.48;;;25.30;99.90;;;;;;4974741;28;20047;-69
2022/10/08 03:24:22;;;;;;;11.13;7.53;;;25.30;99.90;;;;;;4974164;28;20039;-69
2022/10/08 03:26:48;;;;;;;10.60;6.72;;;25.20;99.90;;;;;;4975060;28;20118;-69
2022/10/08 03:29:15;;;;;;;10.23;6.78;;;25.20;99.90;;;;;;4958672;28;20402;-67
2022/10/08 03:31:41;;;;;;;6.65;5.07;;;25.30;99.90;;;;;;4975039;28;20071;-68
2022/10/08 03:34:08;;;;;;;6.80;5.10;;;25.30;99.90;;;;;;4974841;28;20051;-68
2022/10/08 03:36:35;;;;;;;6.03;4.35;;;25.20;99.90;;;;;;4962566;28;20435;-68
2022/10/08 03:39:02;;;;;;;11.63;4.97;;;25.20;99.90;;;;;;5016202;28;20026;-68
2022/10/08 03:41:30;;;;;;;9.75;5.22;;;25.30;99.90;;;;;;5016029;28;20523;-67
2022/10/08 03:43:58;;;;;;;8.45;5.35;;;25.40;99.90;;;;;;5016027;28;20361;-68
2022/10/08 03:46:25;;;;;;;12.27;5.95;;;25.50;99.90;;;;;;5015003;28;20377;-69
2022/10/08 03:48:51;;;;;;;7.65;5.22;;;25.40;99.90;;;;;;5015381;28;20030;-68
2022/10/08 03:51:19;;;;;;;10.95;5.20;;;25.50;99.90;;;;;;5015721;28;20048;-69
2022/10/08 03:53:46;;;;;;;14.85;5.88;;;25.50;99.90;;;;;;5035207;28;20037;-69
2022/10/08 03:56:16;;;;;;;10.15;7.13;;;25.60;99.90;;;;;;5035636;28;20392;-69
2022/10/08 03:58:42;;;;;;;11.68;6.65;;;25.60;99.90;;;;;;5035317;28;20017;-68
2022/10/08 04:01:14;;;;;;;12.63;6.95;;;25.70;99.90;;;;;;5035114;28;20169;-69
2022/10/08 04:03:42;;;;;;;13.45;7.05;;;25.70;99.90;;;;;;5035278;28;20499;-69
2022/10/08 04:06:08;;;;;;;13.82;7.15;;;25.70;99.90;;;;;;5035210;28;20060;-69
2022/10/08 04:08:36;;;;;;;16.67;6.28;;;25.70;99.90;;;;;;5034997;28;20033;-69
2022/10/08 04:11:04;;;;;;;10.27;7.40;;;25.80;99.90;;;;;;5035226;28;20079;-69
2022/10/08 04:13:31;;;;;;;15.07;7.88;;;25.80;99.90;;;;;;5034284;28;20476;-69
2022/10/08 04:16:04;;;;;;;252.10;218.57;;;25.80;99.90;;;;;;5035081;28;20476;-68
2022/10/08 04:18:31;;;;;;;18.40;14.05;;;25.90;99.90;;;;;;5034993;28;20030;-69
2022/10/08 04:20:59;;;;;;;12.68;7.28;;;25.90;99.90;;;;;;5034923;28;20495;-69
2022/10/08 04:23:27;;;;;;;9.73;7.22;;;26.00;99.90;;;;;;5034676;28;20025;-68
2022/10/08 04:25:54;;;;;;;14.15;9.13;;;26.00;99.90;;;;;;5034833;28;20035;-68
2022/10/08 04:28:21;;;;;;;21.17;13.20;;;26.10;99.90;;;;;;5034765;28;20033;-69
2022/10/08 04:30:59;;;;;;;14.63;9.52;;;26.10;99.90;;;;;;5034565;28;20030;-68
2022/10/08 04:33:26;;;;;;;24.17;11.00;;;26.10;99.90;;;;;;5034775;28;20031;-68
2022/10/08 04:35:54;;;;;;;14.73;9.30;;;26.20;99.90;;;;;;5034611;28;20044;-68
2022/10/08 04:38:21;;;;;;;14.70;8.52;;;26.20;99.90;;;;;;5033735;28;20021;-68
2022/10/08 04:40:48;;;;;;;129.90;16.55;;;26.20;99.90;;;;;;5034360;28;20484;-67
2022/10/08 04:43:15;;;;;;;25.60;10.50;;;26.30;99.90;;;;;;5034806;28;20045;-68
2022/10/08 04:45:44;;;;;;;16.70;9.68;;;26.30;99.90;;;;;;5034472;28;20021;-67
2022/10/08 04:48:12;;;;;;;15.10;9.43;;;26.30;99.90;;;;;;5034326;28;20030;-67
2022/10/08 04:50:39;;;;;;;19.40;12.25;;;26.40;99.90;;;;;;5034387;28;20025;-67
2022/10/08 04:53:06;;;;;;;15.15;9.98;;;26.40;99.90;;;;;;5034247;28;20468;-67
2022/10/08 04:55:33;;;;;;;25.15;9.23;;;26.40;99.90;;;;;;5042702;28;20025;-67
2022/10/08 04:58:00;;;;;;;17.33;11.05;;;26.40;99.90;;;;;;5043716;28;20021;-66
2022/10/08 05:00:26;;;;;;;13.57;9.27;;;26.40;99.90;;;;;;5044574;28;20028;-66
2022/10/08 05:02:53;;;;;;;17.08;10.43;;;26.50;99.90;;;;;;5041252;28;20472;-68
2022/10/08 05:05:20;;;;;;;15.43;10.68;;;26.50;99.90;;;;;;5043638;28;20376;-66
2022/10/08 05:07:46;;;;;;;17.17;9.77;;;26.40;99.90;;;;;;5044285;28;20389;-68
2022/10/08 05:10:13;;;;;;;15.75;9.88;;;26.30;99.90;;;;;;5042350;28;20022;-67
2022/10/08 05:12:39;;;;;;;79.03;53.58;;;26.30;99.90;;;;;;5043692;28;20017;-67
2022/10/08 05:15:07;;;;;;;49.10;31.80;;;26.30;99.90;;;;;;5044164;28;20029;-67
2022/10/08 05:17:34;;;;;;;111.10;75.35;;;26.40;99.90;;;;;;5042457;28;20041;-67
2022/10/08 05:20:00;;;;;;;58.28;43.38;;;26.60;99.90;;;;;;5043693;28;20013;-67
2022/10/08 05:22:27;;;;;;;22.75;14.82;;;26.50;99.90;;;;;;5044214;28;20204;-69
2022/10/08 05:24:54;;;;;;;28.80;18.98;;;26.60;99.90;;;;;;5022306;28;20452;-69
2022/10/08 05:27:20;;;;;;;25.88;17.35;;;26.70;99.90;;;;;;5045061;28;20024;-69
2022/10/08 05:29:47;;;;;;;32.28;18.75;;;26.60;99.90;;;;;;5053565;28;20033;-71
2022/10/08 05:32:13;;;;;;;22.50;15.13;;;26.50;99.90;;;;;;5053689;28;20361;-71
2022/10/08 05:34:40;;;;;;;22.15;13.52;;;26.50;99.90;;;;;;5049223;28;20105;-71
2022/10/08 05:37:06;;;;;;;29.70;19.60;;;26.50;99.90;;;;;;5033485;28;20021;-71
2022/10/08 05:39:33;;;;;;;19.58;12.52;;;26.60;99.90;;;;;;5034039;28;20013;-71
2022/10/08 05:41:59;;;;;;;21.83;13.07;;;26.60;99.90;;;;;;5033830;28;20365;-69
2022/10/08 05:44:26;;;;;;;17.88;11.80;;;26.60;99.90;;;;;;5033181;28;20025;-70
2022/10/08 05:46:52;;;;;;;18.08;11.57;;;26.60;99.90;;;;;;5033690;28;20044;-72
2022/10/08 05:49:21;;;;;;;17.63;12.55;;;26.70;99.90;;;;;;5033005;28;20022;-72
2022/10/08 05:51:49;;;;;;;15.25;11.43;;;26.70;99.90;;;;;;5033212;28;20025;-71
2022/10/08 05:54:17;;;;;;;18.50;11.35;;;26.70;99.90;;;;;;5033610;28;20017;-71
2022/10/08 05:56:43;;;;;;;18.00;10.95;;;26.60;99.90;;;;;;5032891;28;20022;-72
2022/10/08 05:59:22;;;;;;;19.20;10.38;;;26.60;99.90;;;;;;5033278;28;20571;-72
2022/10/08 06:01:49;;;;;;;18.02;10.43;;;26.60;99.90;;;;;;5033090;28;20038;-71
2022/10/08 06:04:17;;;;;;;17.50;9.43;;;26.70;99.90;;;;;;5033036;28;20056;-71
2022/10/08 06:06:44;;;;;;;19.33;11.80;;;26.70;99.90;;;;;;5032877;28;20037;-70
2022/10/08 06:09:16;;;;;;;18.63;11.85;;;26.80;99.90;;;;;;5001693;28;20437;-71
2022/10/08 06:11:43;;;;;;;20.65;13.10;;;26.80;99.90;;;;;;5016932;28;20026;-71
2022/10/08 06:14:11;;;;;;;26.10;13.75;;;26.90;99.90;;;;;;5017424;28;20105;-71
2022/10/08 06:16:39;;;;;;;24.27;12.18;;;26.80;99.90;;;;;;5003455;28;20026;-68
2022/10/08 06:19:06;;;;;;;16.55;10.40;;;26.70;99.90;;;;;;5016774;28;20392;-71
2022/10/08 06:21:35;;;;;;;16.23;10.63;;;26.60;99.90;;;;;;5017859;28;20057;-71
2022/10/08 06:24:06;;;;;;;18.30;9.77;;;26.70;99.90;;;;;;5017319;28;20097;-70
2022/10/08 06:26:37;;;;;;;12.35;8.20;;;26.70;99.90;;;;;;5017352;28;20480;-71
2022/10/08 06:29:05;;;;;;;15.25;8.13;;;26.70;99.90;;;;;;5017441;28;20086;-70
2022/10/08 06:31:32;;;;;;;20.88;8.80;;;26.70;99.90;;;;;;5017499;28;20022;-68
2022/10/08 06:33:59;;;;;;;17.30;8.32;;;26.80;99.90;;;;;;5021751;28;20100;-68
2022/10/08 06:36:27;;;;;;;13.70;8.48;;;26.80;99.90;;;;;;5007553;28;20076;-67
2022/10/08 06:38:56;;;;;;;19.77;9.30;;;26.80;99.90;;;;;;5025875;28;20034;-67
2022/10/08 06:41:24;;;;;;;19.50;11.77;;;26.80;99.90;;;;;;5019255;28;20025;-67
2022/10/08 06:43:51;;;;;;;24.17;13.30;;;26.80;99.90;;;;;;5017562;28;20057;-67
2022/10/08 06:46:18;;;;;;;20.00;13.18;;;26.80;99.90;;;;;;5032182;28;20044;-67
2022/10/08 06:48:45;;;;;;;20.73;13.23;;;26.80;99.90;;;;;;5031459;28;20022;-67
2022/10/08 06:51:15;;;;;;;22.92;13.63;;;26.90;99.90;;;;;;5028158;28;20022;-67
2022/10/08 06:53:42;;;;;;;21.50;13.43;;;26.90;99.90;;;;;;5030513;28;20018;-67
2022/10/08 06:56:13;;;;;;;24.73;13.30;;;26.90;99.90;;;;;;5019359;28;20029;-67
2022/10/08 06:58:41;;;;;;;18.42;12.20;;;27.00;99.90;;;;;;5024651;28;20033;-67
2022/10/08 07:01:21;;;;;;;24.08;13.38;;;27.10;99.90;;;;;;5023598;28;20030;-67
2022/10/08 07:03:53;;;;;;;17.48;11.73;;;27.20;99.90;;;;;;5024811;28;20380;-66
2022/10/08 07:11:51;;;;;;;28.42;17.77;;;27.30;99.90;;;;;;5026147;28;20037;-67
2022/10/08 07:14:17;;;;;;;30.50;18.00;;;27.50;99.90;;;;;;5025935;28;20038;-66
2022/10/08 07:16:44;;;;;;;30.98;17.13;;;27.50;99.90;;;;;;5025502;28;20526;-67
2022/10/08 07:19:11;;;;;;;25.73;18.88;;;27.50;99.90;;;;;;5024305;28;20014;-67
2022/10/08 07:21:37;;;;;;;33.13;19.35;;;27.50;99.90;;;;;;5024277;28;20151;-66
2022/10/08 07:24:04;;;;;;;25.85;18.98;;;27.50;99.90;;;;;;5025329;28;20033;-66
2022/10/08 07:26:33;;;;;;;37.10;23.27;;;27.60;99.90;;;;;;5023113;28;20026;-67
2022/10/08 07:29:02;;;;;;;33.88;22.85;;;27.60;99.90;;;;;;5021322;28;20044;-66
2022/10/08 07:31:34;;;;;;;37.83;24.75;;;27.50;99.90;;;;;;5035772;28;20425;-65
2022/10/08 07:34:03;;;;;;;34.65;22.55;;;27.40;99.90;;;;;;5028772;28;20076;-66
2022/10/08 07:36:30;;;;;;;36.83;24.02;;;27.50;99.90;;;;;;5035784;28;20524;-65
2022/10/08 07:39:00;;;;;;;35.13;23.77;;;27.50;99.90;;;;;;5035586;28;20104;-66
2022/10/08 07:41:29;;;;;;;32.03;23.30;;;27.40;99.90;;;;;;5035799;28;20057;-66
2022/10/08 07:43:58;;;;;;;34.92;21.55;;;27.50;99.90;;;;;;5035355;28;20109;-67
2022/10/08 07:46:36;;;;;;;36.67;25.15;;;27.50;99.90;;;;;;5035620;28;20029;-66
2022/10/08 07:49:03;;;;;;;40.38;23.30;;;27.60;99.90;;;;;;5035669;28;20030;-66
2022/10/08 07:51:32;;;;;;;41.05;26.17;;;27.60;99.90;;;;;;5035463;28;20025;-66
2022/10/08 07:54:00;;;;;;;39.10;23.63;;;27.60;99.90;;;;;;5035383;28;20025;-65
2022/10/08 07:56:27;;;;;;;30.77;22.73;;;27.60;99.90;;;;;;5035477;28;20025;-66
2022/10/08 07:58:54;;;;;;;31.55;22.13;;;27.70;99.90;;;;;;5035251;28;20101;-66
2022/10/08 08:01:27;;;;;;;31.10;22.17;;;27.60;99.90;;;;;;5018947;28;20488;-67
2022/10/08 08:03:56;;;;;;;42.20;23.05;;;27.60;99.90;;;;;;5015537;28;20463;-67
2022/10/08 08:06:23;;;;;;;26.58;18.85;;;27.60;99.90;;;;;;5015504;28;20057;-68
2022/10/08 08:08:50;;;;;;;38.97;25.23;;;27.60;99.90;;;;;;5015326;28;20069;-67
2022/10/08 08:11:20;;;;;;;47.17;27.52;;;27.60;99.90;;;;;;5014968;28;20066;-65
2022/10/08 08:13:46;;;;;;;37.67;22.08;;;27.70;99.90;;;;;;5015450;28;20475;-67
2022/10/08 08:16:16;;;;;;;30.38;20.02;;;27.70;99.90;;;;;;5015430;28;20366;-67
2022/10/08 08:18:46;;;;;;;34.20;21.73;;;27.60;99.90;;;;;;5015078;28;20033;-67
2022/10/08 08:21:15;;;;;;;33.70;21.10;;;27.60;99.90;;;;;;5015124;28;20034;-67
2022/10/08 08:23:46;;;;;;;29.88;21.05;;;27.60;99.90;;;;;;5014778;28;20033;-67
2022/10/08 08:26:18;;;;;;;31.90;22.65;;;27.60;99.90;;;;;;5015078;28;20097;-66
2022/10/08 08:28:44;;;;;;;38.80;23.33;;;27.50;99.90;;;;;;5015158;28;20045;-67
2022/10/08 08:31:21;;;;;;;36.33;22.48;;;27.50;99.90;;;;;;5014957;28;20026;-67
2022/10/08 08:33:53;;;;;;;36.53;21.40;;;27.50;99.90;;;;;;5014455;28;20018;-67
2022/10/08 08:36:26;;;;;;;40.97;21.60;;;27.50;99.90;;;;;;5014909;28;20025;-67
2022/10/08 08:38:53;;;;;;;34.85;22.35;;;27.50;99.90;;;;;;5014189;28;20029;-67
2022/10/08 08:41:40;;;;;;;34.88;21.88;;;27.50;99.90;;;;;;5014867;28;20026;-67
2022/10/08 08:44:31;;;;;;;34.90;23.63;;;27.40;99.90;;;;;;5006920;28;20026;-68
2022/10/08 08:47:03;;;;;;;36.60;21.63;;;27.40;99.90;;;;;;4935084;29;20122;-67
2022/10/08 08:49:37;;;;;;;36.17;21.60;;;27.30;99.90;;;;;;4935174;29;20061;-68
2022/10/08 08:52:05;;;;;;;33.38;20.90;;;27.30;99.90;;;;;;4934672;29;20479;-68
2022/10/08 08:54:32;;;;;;;35.78;19.85;;;27.30;99.90;;;;;;4935138;29;20118;-67
2022/10/08 08:57:39;;;;;;;28.77;19.85;;;27.30;99.90;;;;;;4935043;29;20049;-68
2022/10/08 09:00:18;;;;;;;24.27;16.85;;;27.30;99.90;;;;;;4926984;29;20123;-68
2022/10/08 09:03:11;;;;;;;27.15;17.02;;;27.30;99.90;;;;;;4934814;29;20082;-67
2022/10/08 09:05:42;;;;;;;28.98;16.60;;;27.20;99.90;;;;;;4896862;29;20498;-68
2022/10/08 09:08:23;;;;;;;26.65;16.17;;;27.20;99.90;;;;;;4896627;29;20131;-68
2022/10/08 09:10:57;;;;;;;22.38;14.82;;;27.20;99.90;;;;;;4896927;29;20488;-67
2022/10/08 09:13:33;;;;;;;27.75;15.68;;;27.20;99.90;;;;;;4896243;29;20036;-68
2022/10/08 09:16:00;;;;;;;30.58;17.85;;;27.20;99.90;;;;;;4896808;29;20075;-68
2022/10/08 09:18:27;;;;;;;28.95;18.45;;;27.20;99.90;;;;;;4896320;29;20037;-68
2022/10/08 09:20:53;;;;;;;26.58;18.23;;;27.20;99.90;;;;;;4896722;29;20036;-66
2022/10/08 09:23:23;;;;;;;38.15;22.15;;;27.10;99.90;;;;;;4896649;29;20047;-66
2022/10/08 09:26:15;;;;;;;32.83;24.73;;;27.10;99.90;;;;;;4896646;29;20515;-66
2022/10/08 09:28:54;;;;;;;60.22;41.53;;;27.10;99.90;;;;;;4840411;29;20077;-65
2022/10/08 09:31:22;;;;;;;28.40;19.70;;;27.10;99.90;;;;;;4857246;29;20537;-66
2022/10/08 09:34:09;;;;;;;25.50;16.50;;;27.10;99.90;;;;;;4859239;29;20491;-65
2022/10/08 09:36:37;;;;;;;23.80;17.17;;;27.00;99.90;;;;;;4859042;29;20068;-66
2022/10/08 09:39:14;;;;;;;52.15;38.63;;;27.00;99.90;;;;;;4859238;29;20034;-66
2022/10/08 09:41:43;;;;;;;28.38;19.50;;;27.00;99.90;;;;;;4863780;29;20025;-66
2022/10/08 09:44:19;;;;;;;24.40;15.65;;;27.00;99.90;;;;;;4914730;29;20538;-66
2022/10/08 09:46:46;;;;;;;23.15;14.23;;;27.00;99.90;;;;;;4914983;29;20043;-66
2022/10/08 09:49:20;;;;;;;20.75;14.45;;;27.00;99.90;;;;;;4915120;29;20044;-66
2022/10/08 09:51:49;;;;;;;18.33;14.13;;;27.00;99.90;;;;;;4914856;29;20419;-66
2022/10/08 09:54:22;;;;;;;16.73;12.48;;;27.00;99.90;;;;;;4915105;29;20082;-65
2022/10/08 09:57:00;;;;;;;19.30;14.88;;;26.90;99.90;;;;;;4915037;29;20024;-65
2022/10/08 09:59:30;;;;;;;18.10;13.00;;;26.90;99.90;;;;;;4914957;29;20043;-65
2022/10/08 10:01:57;;;;;;;83.35;62.17;;;26.90;99.90;;;;;;4914914;29;20036;-66
2022/10/08 10:04:39;;;;;;;26.75;17.98;;;26.90;99.90;;;;;;4914840;29;20040;-66
2022/10/08 10:07:06;;;;;;;24.03;15.13;;;26.90;99.90;;;;;;4914045;29;20067;-65
2022/10/08 10:09:43;;;;;;;173.88;122.32;;;26.90;99.90;;;;;;4914979;29;20088;-66
2022/10/08 10:12:30;;;;;;;668.42;501.58;;;26.90;99.90;;;;;;4914668;29;20086;-67
2022/10/08 10:15:02;;;;;;;61.80;40.25;;;26.90;99.90;;;;;;4914808;29;20031;-66
2022/10/08 10:17:34;;;;;;;440.33;346.67;;;26.90;99.90;;;;;;4920812;28;20024;-65
2022/10/08 10:20:22;;;;;;;77.45;52.83;;;26.90;99.90;;;;;;5013165;28;20034;-65
2022/10/08 10:23:10;;;;;;;185.82;136.85;;;26.80;99.90;;;;;;4933571;29;20039;-66
2022/10/08 10:25:37;;;;;;;30.83;18.15;;;26.80;99.90;;;;;;4933141;28;20526;-66
2022/10/08 10:28:27;;;;;;;24.52;16.08;;;26.80;99.90;;;;;;4933729;29;20054;-67
2022/10/08 10:31:18;;;;;;;33.63;14.82;;;26.80;99.90;;;;;;4895270;29;20036;-67
2022/10/08 10:33:47;;;;;;;26.85;15.55;;;26.80;99.90;;;;;;4895251;29;20040;-67
2022/10/08 10:36:17;;;;;;;30.00;18.27;;;26.80;99.90;;;;;;4895773;29;20037;-67
2022/10/08 10:38:53;;;;;;;30.00;18.40;;;26.80;99.90;;;;;;4895705;29;20093;-68
2022/10/08 10:41:30;;;;;;;26.85;17.25;;;26.70;99.90;;;;;;4895909;29;20131;-69
2022/10/08 10:44:03;;;;;;;29.15;16.27;;;26.70;99.90;;;;;;4895621;29;20112;-67
2022/10/08 10:46:31;;;;;;;43.22;29.67;;;26.70;99.90;;;;;;4895729;29;20051;-66
2022/10/08 10:48:58;;;;;;;38.20;19.48;;;26.60;99.90;;;;;;4895633;29;20108;-67
2022/10/08 10:51:44;;;;;;;33.58;21.60;;;26.70;99.90;;;;;;4895374;29;20068;-66
2022/10/08 10:54:39;;;;;;;38.00;25.23;;;26.60;99.90;;;;;;4941915;28;20063;-68
2022/10/08 10:57:21;;;;;;;41.75;24.50;;;26.70;99.90;;;;;;4954732;28;20031;-70
2022/10/08 11:00:05;;;;;;;42.95;31.40;;;26.70;99.90;;;;;;4956055;29;20019;-69
2022/10/08 11:02:40;;;;;;;52.38;35.58;;;26.70;99.90;;;;;;4956239;29;20486;-68
2022/10/08 11:05:15;;;;;;;48.45;31.92;;;26.70;99.90;;;;;;4955791;29;20110;-66
2022/10/08 11:07:51;;;;;;;47.85;28.02;;;26.70;99.90;;;;;;4971972;28;20056;-66
2022/10/08 11:10:40;;;;;;;40.92;26.67;;;26.70;99.90;;;;;;4996695;28;20101;-69
2022/10/08 11:13:16;;;;;;;41.00;25.77;;;26.60;99.90;;;;;;4996971;28;20033;-68
2022/10/08 11:15:49;;;;;;;47.72;26.25;;;26.50;99.90;;;;;;4996385;28;20030;-68
2022/10/08 11:18:50;;;;;;;42.22;24.90;;;26.40;99.90;;;;;;5016850;28;20021;-73
2022/10/08 11:21:47;;;;;;;37.38;26.02;;;26.40;99.90;;;;;;5023988;28;20033;-68
2022/10/08 11:24:43;;;;;;;48.78;32.08;;;26.50;99.90;;;;;;5017592;28;20040;-72
2022/10/08 11:27:49;;;;;;;54.80;38.38;;;26.40;99.90;;;;;;5015966;28;20506;-69
2022/10/08 11:30:21;;;;;;;83.18;54.22;;;26.30;99.90;;;;;;4898433;29;20052;-68
2022/10/08 11:32:52;;;;;;;69.53;47.33;;;26.30;99.90;;;;;;4899140;29;20027;-69
2022/10/08 11:35:34;;;;;;;59.75;34.33;;;26.30;99.90;;;;;;4898655;29;20037;-69
2022/10/08 11:38:28;;;;;;;54.50;34.53;;;26.20;99.90;;;;;;4898555;29;20024;-69
2022/10/08 11:41:15;;;;;;;49.42;26.73;;;26.20;99.90;;;;;;4897069;29;20563;-69
2022/10/08 11:43:55;;;;;;;41.08;22.00;;;26.10;99.90;;;;;;4841117;29;20045;-69
2022/10/08 11:46:33;;;;;;;39.20;22.60;;;26.10;99.90;;;;;;4841480;29;20041;-69
2022/10/08 11:49:01;;;;;;;48.28;24.75;;;26.20;99.90;;;;;;4841319;29;20461;-68
2022/10/08 11:51:33;;;;;;;41.03;23.50;;;26.10;99.90;;;;;;4841050;29;20029;-69
2022/10/08 11:54:04;;;;;;;49.38;24.15;;;26.10;99.90;;;;;;4841164;29;20036;-68
2022/10/08 11:56:32;;;;;;;45.33;21.98;;;26.20;99.90;;;;;;4841851;29;20022;-69
2022/10/08 11:59:06;;;;;;;33.25;19.17;;;26.30;99.90;;;;;;4841971;29;20524;-69
2022/10/08 12:01:33;;;;;;;33.55;18.92;;;26.30;99.90;;;;;;4841925;29;20098;-68
2022/10/08 12:04:09;;;;;;;41.60;20.90;;;26.30;99.90;;;;;;4841733;29;20078;-69
2022/10/08 12:07:12;;;;;;;37.60;20.30;;;26.30;99.90;;;;;;4850910;29;20049;-68
2022/10/08 12:09:56;;;;;;;;;;;26.20;99.90;;;;;;4860551;29;20545;-71
2022/10/08 12:12:50;;;;;;;32.05;18.27;;;26.20;99.90;;;;;;4860413;29;19920;-70
2022/10/08 12:15:26;;;;;;;32.40;17.88;;;26.30;99.90;;;;;;4909721;29;20072;-69
2022/10/08 12:17:54;;;;;;;32.47;17.17;;;26.30;99.90;;;;;;4916582;29;20620;-68
2022/10/08 12:20:27;;;;;;;31.92;15.98;;;26.30;99.90;;;;;;4916553;29;20161;-69
2022/10/08 12:23:07;;;;;;;34.67;16.42;;;26.20;99.90;;;;;;4916348;29;20068;-68
2022/10/08 12:25:34;;;;;;;33.83;14.98;;;26.20;99.90;;;;;;4916695;29;20063;-68
2022/10/08 12:28:21;;;;;;;30.95;15.35;;;26.30;99.90;;;;;;4916388;29;20039;-69
2022/10/08 12:30:51;;;;;;;32.55;15.05;;;26.20;99.90;;;;;;4916295;29;20040;-69
2022/10/08 12:33:18;;;;;;;36.25;14.82;;;26.20;99.90;;;;;;4950383;28;20046;-69
2022/10/08 12:36:06;;;;;;;47.25;14.60;;;26.20;99.90;;;;;;4958294;28;20389;-69
2022/10/08 12:38:52;;;;;;;38.38;13.77;;;26.10;99.90;;;;;;4975568;28;20030;-69
2022/10/08 12:41:23;;;;;;;29.15;13.68;;;26.10;99.90;;;;;;4975555;28;20109;-69
2022/10/08 12:43:55;;;;;;;32.25;14.48;;;26.20;99.90;;;;;;4975587;28;20422;-68
2022/10/08 12:46:25;;;;;;;38.30;15.70;;;26.10;99.90;;;;;;4975516;28;20477;-67
2022/10/08 12:49:02;;;;;;;52.50;17.83;;;26.10;99.90;;;;;;4975389;28;20030;-70
2022/10/08 12:51:40;;;;;;;38.92;16.73;;;26.10;99.90;;;;;;4999598;28;20519;-70
2022/10/08 12:54:21;;;;;;;34.00;17.70;;;26.10;99.90;;;;;;5001094;28;20026;-69
2022/10/08 12:56:49;;;;;;;32.70;17.77;;;26.20;99.90;;;;;;4995017;28;20023;-69
2022/10/08 12:59:18;;;;;;;34.95;18.10;;;26.20;99.90;;;;;;4994802;28;20050;-69
2022/10/08 13:01:46;;;;;;;33.30;19.50;;;26.20;99.90;;;;;;4995048;28;20362;-68